Time;durP1;ratioP1;P1;durP2;ratioP2;P2;SDS_P1;SDS_P2;PMS_P1;PMS_P2;Temp;Humidity;BMP_temperature;BMP_pressure;BME280_temperature;BME280_humidity;BME280_pressure;Samples;Min_cycle;Max_cycle;Signal;HPM_P1;HPM_P2
2022/08/02 00:00:14;;;;;;;8.73;4.68;;;;;;;14.45;79.80;101789.91;5071393;28;20043;-70
2022/08/02 00:02:44;;;;;;;7.97;4.53;;;;;;;14.48;81.71;101798.38;5071582;28;20020;-70
2022/08/02 00:05:10;;;;;;;15.30;5.57;;;;;;;14.43;81.02;101803.50;5071552;28;20029;-70
2022/08/02 00:07:36;;;;;;;11.35;4.45;;;;;;;14.38;82.35;101805.13;5071613;28;20399;-70
2022/08/02 00:10:02;;;;;;;7.38;4.05;;;;;;;14.31;83.05;101793.56;5071624;28;20035;-70
2022/08/02 00:12:28;;;;;;;12.00;5.50;;;;;;;14.35;83.33;101789.44;5071315;28;20020;-70
2022/08/02 00:14:53;;;;;;;12.15;5.20;;;;;;;14.34;83.03;101788.63;5071379;28;20063;-70
2022/08/02 00:17:18;;;;;;;7.88;4.13;;;;;;;14.37;83.95;101798.94;5069853;28;20032;-70
2022/08/02 00:19:44;;;;;;;9.75;5.22;;;;;;;14.34;85.38;101795.84;5071442;28;20035;-70
2022/08/02 00:22:10;;;;;;;5.53;3.67;;;;;;;14.32;85.58;101798.72;5071378;28;20032;-70
2022/08/02 00:24:36;;;;;;;10.82;4.15;;;;;;;14.31;84.45;101798.94;5071214;28;20068;-69
2022/08/02 00:27:06;;;;;;;7.30;4.70;;;;;;;14.29;83.16;101798.28;5071002;28;20032;-69
2022/08/02 00:29:32;;;;;;;8.73;4.38;;;;;;;14.24;83.38;101798.88;5070983;28;20043;-68
2022/08/02 00:31:58;;;;;;;9.88;4.97;;;;;;;14.16;84.29;101789.13;5070552;28;20383;-69
2022/08/02 00:34:23;;;;;;;9.55;4.35;;;;;;;14.22;84.36;101801.75;5069742;28;20037;-69
2022/08/02 00:36:49;;;;;;;8.32;4.53;;;;;;;14.21;84.22;101801.97;5070939;28;20115;-69
2022/08/02 00:39:14;;;;;;;7.20;4.20;;;;;;;14.19;85.41;101790.59;5069742;28;20043;-69
2022/08/02 00:41:51;;;;;;;5.80;3.63;;;;;;;14.18;85.23;101789.75;5070869;28;20109;-69
2022/08/02 00:44:18;;;;;;;8.07;4.65;;;;;;;14.18;85.15;101797.00;5070804;28;20025;-69
2022/08/02 00:46:43;;;;;;;12.93;5.10;;;;;;;14.15;85.72;101783.97;5070802;28;20502;-69
2022/08/02 00:49:10;;;;;;;7.43;3.90;;;;;;;14.12;85.98;101781.66;5070132;28;20062;-69
2022/08/02 00:51:36;;;;;;;8.00;4.32;;;;;;;14.10;84.71;101787.25;5070746;28;20040;-69
2022/08/02 00:54:02;;;;;;;7.25;4.88;;;;;;;14.11;84.57;101788.06;5070512;28;20025;-69
2022/08/02 00:56:27;;;;;;;5.68;4.32;;;;;;;14.10;84.13;101775.69;5069400;28;20051;-69
2022/08/02 00:58:53;;;;;;;8.20;4.40;;;;;;;14.11;82.47;101767.44;5070759;28;20991;-69
2022/08/02 01:01:18;;;;;;;5.18;3.63;;;;;;;14.09;84.08;101768.66;5070258;28;20036;-69
2022/08/02 01:03:44;;;;;;;7.13;4.72;;;;;;;14.02;83.50;101768.63;5070471;28;20036;-69
2022/08/02 01:06:09;;;;;;;8.70;4.22;;;;;;;14.00;83.46;101776.03;5070478;28;20036;-69
2022/08/02 01:08:37;;;;;;;6.80;4.70;;;;;;;13.96;82.74;101772.94;5070335;28;20032;-69
2022/08/02 01:11:02;;;;;;;20.55;4.35;;;;;;;13.99;83.76;101775.22;5070267;28;20387;-69
2022/08/02 01:13:28;;;;;;;6.93;4.10;;;;;;;14.00;83.18;101763.44;5069012;28;20049;-69
2022/08/02 01:16:17;;;;;;;9.82;4.65;;;;;;;14.00;82.76;101752.72;5070220;28;20468;-69
2022/08/02 01:18:50;;;;;;;8.13;5.38;;;;;;;14.04;83.37;101755.81;5070120;28;20115;-69
2022/08/02 01:21:50;;;;;;;7.05;4.25;;;;;;;14.06;82.64;101771.72;5070039;28;20024;-69
2022/08/02 01:24:29;;;;;;;6.28;3.92;;;;;;;14.00;81.26;101770.66;5061657;28;20032;-69
2022/08/02 01:27:19;;;;;;;5.88;2.97;;;;;;;14.07;79.47;101768.00;5069992;28;20028;-69
2022/08/02 01:29:50;;;;;;;10.00;4.32;;;;;;;14.07;81.74;101770.69;5069589;28;20040;-69
2022/08/02 01:32:19;;;;;;;7.43;3.37;;;;;;;14.07;80.01;101770.69;5069838;28;20036;-69
2022/08/02 01:34:50;;;;;;;7.40;3.97;;;;;;;14.10;81.78;101767.63;5069473;28;20032;-69
2022/08/02 01:37:27;;;;;;;10.20;3.70;;;;;;;14.01;81.47;101765.09;5069885;28;20032;-69
2022/08/02 01:39:59;;;;;;;5.72;3.47;;;;;;;13.97;81.80;101757.66;5069744;28;20039;-69
2022/08/02 01:42:26;;;;;;;9.35;3.72;;;;;;;13.98;79.11;101753.94;5069723;28;20119;-69
2022/08/02 01:44:54;;;;;;;7.03;3.47;;;;;;;14.01;78.21;101751.69;5069807;28;20047;-69
2022/08/02 01:47:27;;;;;;;8.48;3.42;;;;;;;14.09;80.69;101757.91;5068362;28;20115;-69
2022/08/02 01:49:56;;;;;;;5.75;2.88;;;;;;;14.11;80.68;101751.34;5069362;28;20028;-69
2022/08/02 01:52:25;;;;;;;9.15;3.30;;;;;;;14.08;80.86;101751.72;5069125;28;20032;-69
2022/08/02 01:55:00;;;;;;;5.47;2.95;;;;;;;14.07;79.54;101754.59;5069583;28;20407;-70
2022/08/02 01:57:29;;;;;;;6.25;3.50;;;;;;;14.00;81.85;101746.53;5069523;28;20043;-70
2022/08/02 01:59:59;;;;;;;7.05;4.35;;;;;;;13.94;82.14;101739.28;5069383;28;20040;-69
2022/08/02 02:02:27;;;;;;;7.57;3.20;;;;;;;13.95;81.07;101746.28;5069550;28;20028;-69
2022/08/02 02:04:54;;;;;;;4.22;2.92;;;;;;;13.90;78.73;101728.09;5069425;28;20028;-70
2022/08/02 02:07:21;;;;;;;8.07;3.40;;;;;;;13.99;78.45;101736.81;5069442;28;20090;-70
2022/08/02 02:09:48;;;;;;;6.00;3.38;;;;;;;14.01;78.17;101738.25;5069346;28;20111;-70
2022/08/02 02:12:16;;;;;;;6.60;3.05;;;;;;;14.08;77.14;101746.38;5069468;28;20047;-70
2022/08/02 02:14:43;;;;;;;8.02;3.85;;;;;;;14.10;76.70;101736.28;5069347;28;20021;-70
2022/08/02 02:17:09;;;;;;;9.93;3.08;;;;;;;14.19;76.70;101742.28;5069172;28;20039;-70
2022/08/02 02:19:36;;;;;;;8.02;4.57;;;;;;;14.23;76.12;101732.84;5069210;28;20538;-70
2022/08/02 02:22:01;;;;;;;7.30;3.03;;;;;;;14.26;75.78;101740.47;5068049;28;20102;-70
2022/08/02 02:24:27;;;;;;;6.40;3.58;;;;;;;14.30;75.70;101728.31;5068627;28;20066;-69
2022/08/02 02:26:52;;;;;;;8.95;3.70;;;;;;;14.33;75.35;101722.56;5069103;28;20028;-69
2022/08/02 02:29:20;;;;;;;6.90;3.30;;;;;;;14.36;75.37;101722.16;5069165;28;20040;-69
2022/08/02 02:31:48;;;;;;;6.15;3.38;;;;;;;14.29;75.73;101713.25;5069000;28;20109;-69
2022/08/02 02:34:16;;;;;;;6.38;3.85;;;;;;;14.37;75.20;101721.13;5068849;28;20416;-69
2022/08/02 02:36:47;;;;;;;8.27;3.55;;;;;;;14.36;75.35;101706.06;5068822;28;20021;-69
2022/08/02 02:39:14;;;;;;;6.97;3.80;;;;;;;14.28;75.60;101700.00;5069042;28;20033;-69
2022/08/02 02:41:42;;;;;;;5.45;3.20;;;;;;;14.33;75.99;101709.16;5072431;28;20035;-69
2022/08/02 02:44:12;;;;;;;7.85;3.80;;;;;;;14.29;79.91;101701.69;5073071;28;20055;-69
2022/08/02 02:46:39;;;;;;;7.50;3.78;;;;;;;14.20;80.02;101701.00;5073064;28;20518;-69
2022/08/02 02:49:05;;;;;;;7.50;3.60;;;;;;;14.11;78.96;101711.09;5073171;28;20137;-69
2022/08/02 02:51:31;;;;;;;6.18;3.85;;;;;;;14.07;80.54;101711.69;5072841;28;20056;-69
2022/08/02 02:53:57;;;;;;;4.93;3.35;;;;;;;14.03;80.47;101708.56;5072573;28;20052;-69
2022/08/02 02:56:23;;;;;;;8.00;4.90;;;;;;;13.99;79.80;101699.25;5072871;28;20032;-69
2022/08/02 02:58:49;;;;;;;6.68;4.00;;;;;;;13.98;80.43;101711.84;5072700;28;20054;-70
2022/08/02 03:01:26;;;;;;;11.95;3.42;;;;;;;13.95;78.30;101706.06;5072695;28;20127;-70
2022/08/02 03:03:53;;;;;;;6.85;3.17;;;;;;;13.98;78.36;101709.16;5072675;28;20029;-70
2022/08/02 03:06:19;;;;;;;10.95;3.78;;;;;;;13.99;80.67;101708.16;5072702;28;20043;-70
2022/08/02 03:08:45;;;;;;;7.05;3.83;;;;;;;13.98;80.41;101708.34;5072756;28;20032;-70
2022/08/02 03:11:11;;;;;;;6.47;3.17;;;;;;;13.95;78.94;101698.84;5072640;28;20036;-70
2022/08/02 03:13:37;;;;;;;7.15;3.75;;;;;;;13.95;79.19;101693.47;5072487;28;20024;-70
2022/08/02 03:16:04;;;;;;;9.40;3.75;;;;;;;13.95;78.33;101701.50;5072500;28;20369;-70
2022/08/02 03:18:34;;;;;;;7.85;3.40;;;;;;;13.96;78.34;101697.81;5072439;28;20036;-69
2022/08/02 03:21:05;;;;;;;8.48;3.63;;;;;;;13.97;78.79;101693.28;5072360;28;20036;-69
2022/08/02 03:23:31;;;;;;;8.40;4.03;;;;;;;13.99;78.56;101692.06;5072447;28;20073;-70
2022/08/02 03:26:09;;;;;;;5.80;3.38;;;;;;;14.01;79.32;101699.88;5072253;28;20098;-70
2022/08/02 03:28:35;;;;;;;4.78;3.13;;;;;;;13.98;82.06;101702.97;5072464;28;20045;-70
2022/08/02 03:31:00;;;;;;;9.95;4.65;;;;;;;13.91;81.15;101708.31;5072006;28;20055;-70
2022/08/02 03:33:27;;;;;;;7.20;3.53;;;;;;;13.90;79.75;101709.31;5072233;28;20032;-70
2022/08/02 03:35:56;;;;;;;4.07;3.25;;;;;;;13.93;79.31;101700.88;5072112;28;20089;-70
2022/08/02 03:38:22;;;;;;;7.05;3.47;;;;;;;13.97;82.78;101695.97;5071778;28;20502;-70
2022/08/02 03:40:48;;;;;;;5.93;4.32;;;;;;;13.98;83.14;101692.25;5071987;28;20033;-70
2022/08/02 03:43:15;;;;;;;6.90;3.55;;;;;;;13.95;82.71;101692.66;5071993;28;20031;-70
2022/08/02 03:45:43;;;;;;;6.45;3.72;;;;;;;13.94;82.39;101691.00;5072039;28;20025;-70
2022/08/02 03:48:10;;;;;;;4.70;3.42;;;;;;;13.94;82.92;101685.66;5071827;28;20569;-70
2022/08/02 03:50:36;;;;;;;7.35;4.05;;;;;;;13.93;80.20;101674.06;5071469;28;20467;-70
2022/08/02 03:53:02;;;;;;;8.70;4.07;;;;;;;13.94;79.89;101677.59;5071537;28;20100;-70
2022/08/02 03:55:27;;;;;;;7.00;3.90;;;;;;;13.99;79.72;101683.16;5069955;28;20021;-70
2022/08/02 03:57:53;;;;;;;7.82;3.75;;;;;;;14.00;84.14;101685.66;5071767;28;20142;-70
2022/08/02 04:00:20;;;;;;;8.63;4.15;;;;;;;13.92;83.00;101679.63;5071676;28;20047;-69
2022/08/02 04:02:46;;;;;;;7.72;4.68;;;;;;;13.93;80.79;101684.78;5071558;28;20028;-69
2022/08/02 04:05:12;;;;;;;11.45;4.32;;;;;;;13.93;81.54;101681.28;5071506;28;20032;-69
2022/08/02 04:07:37;;;;;;;7.18;3.72;;;;;;;13.95;81.99;101681.94;5071211;28;20043;-69
2022/08/02 04:10:04;;;;;;;9.77;3.72;;;;;;;13.93;83.04;101683.97;5071297;28;20029;-69
2022/08/02 04:12:29;;;;;;;8.98;3.90;;;;;;;13.84;81.78;101669.09;5071337;28;20476;-69
2022/08/02 04:14:55;;;;;;;9.50;3.58;;;;;;;13.89;80.30;101686.22;5070919;28;20031;-70
2022/08/02 04:17:22;;;;;;;8.95;4.57;;;;;;;13.89;80.35;101680.88;5071180;28;20111;-70
2022/08/02 04:19:52;;;;;;;7.25;3.55;;;;;;;13.97;80.20;101685.25;5071369;28;20510;-69
2022/08/02 04:22:24;;;;;;;7.47;4.05;;;;;;;14.03;80.33;101679.06;5071266;28;20025;-69
2022/08/02 04:24:53;;;;;;;11.63;3.90;;;;;;;14.06;80.54;101683.22;5071182;28;20024;-70
2022/08/02 04:27:19;;;;;;;7.93;3.80;;;;;;;14.08;80.52;101687.34;5071109;28;20153;-70
2022/08/02 04:29:46;;;;;;;7.57;4.03;;;;;;;14.09;80.61;101685.50;5071061;28;20491;-70
2022/08/02 04:32:12;;;;;;;9.90;4.38;;;;;;;14.09;80.15;101669.41;5070804;28;20102;-70
2022/08/02 04:34:38;;;;;;;10.25;4.90;;;;;;;14.14;80.60;101686.53;5070874;28;20480;-70
2022/08/02 04:37:04;;;;;;;12.52;5.63;;;;;;;14.16;80.22;101687.19;5071004;28;20376;-70
2022/08/02 04:39:29;;;;;;;9.98;4.20;;;;;;;14.20;80.84;101679.53;5070481;28;20502;-70
2022/08/02 04:41:54;;;;;;;7.65;4.30;;;;;;;14.22;82.78;101686.38;5070750;28;20024;-70
2022/08/02 04:44:20;;;;;;;9.60;3.80;;;;;;;14.27;82.91;101691.13;5070714;28;20031;-70
2022/08/02 04:46:45;;;;;;;9.63;4.78;;;;;;;14.23;82.36;101690.72;5070650;28;20025;-69
2022/08/02 04:49:11;;;;;;;11.00;4.95;;;;;;;14.20;81.47;101676.84;5070769;28;20476;-70
2022/08/02 04:51:41;;;;;;;5.75;3.80;;;;;;;14.29;82.01;101680.22;5070583;28;20043;-69
2022/08/02 04:54:09;;;;;;;7.38;3.75;;;;;;;14.33;81.14;101682.31;5070082;28;20029;-69
2022/08/02 04:56:34;;;;;;;10.63;4.70;;;;;;;14.38;81.28;101693.28;5070263;28;20115;-69
2022/08/02 04:59:00;;;;;;;12.75;4.60;;;;;;;14.32;83.21;101672.59;5070284;28;20124;-69
2022/08/02 05:01:26;;;;;;;11.68;5.65;;;;;;;14.30;82.99;101673.81;5069209;28;20376;-69
2022/08/02 05:03:51;;;;;;;10.80;4.65;;;;;;;14.28;83.59;101675.84;5069998;28;20025;-69
2022/08/02 05:06:18;;;;;;;8.55;4.40;;;;;;;14.28;84.43;101674.03;5070318;28;20029;-69
2022/08/02 05:08:44;;;;;;;9.85;4.85;;;;;;;14.27;85.04;101667.00;5070137;28;20158;-69
2022/08/02 05:11:10;;;;;;;10.60;4.70;;;;;;;14.38;83.63;101674.47;5070015;28;20035;-69
2022/08/02 05:13:35;;;;;;;11.35;5.03;;;;;;;14.45;82.90;101663.75;5070241;28;20032;-69
2022/08/02 05:16:02;;;;;;;9.63;4.88;;;;;;;14.52;81.55;101661.09;5070142;28;20025;-69
2022/08/02 05:18:27;;;;;;;10.65;4.75;;;;;;;14.55;81.40;101663.41;5070136;28;20036;-69
2022/08/02 05:20:53;;;;;;;16.20;4.97;;;;;;;14.61;81.19;101670.63;5070084;28;20024;-69
2022/08/02 05:23:19;;;;;;;9.02;5.30;;;;;;;14.69;80.88;101667.75;5069997;28;20021;-69
2022/08/02 05:25:44;;;;;;;11.05;5.45;;;;;;;14.82;80.62;101672.31;5070099;28;20066;-69
2022/08/02 05:28:09;;;;;;;12.55;6.00;;;;;;;14.89;80.23;101660.56;5069956;28;20028;-69
2022/08/02 05:30:35;;;;;;;10.50;4.65;;;;;;;15.03;80.54;101655.19;5069729;28;20393;-69
2022/08/02 05:33:00;;;;;;;15.05;5.00;;;;;;;15.17;80.36;101664.91;5051972;28;20043;-70
2022/08/02 05:35:25;;;;;;;9.65;5.13;;;;;;;15.30;79.86;101658.69;5069829;28;20541;-69
2022/08/02 05:37:51;;;;;;;9.18;6.20;;;;;;;15.41;79.63;101644.63;5069769;28;20472;-69
2022/08/02 05:40:17;;;;;;;13.30;5.13;;;;;;;15.55;79.55;101650.81;5069731;28;20120;-69
2022/08/02 05:42:43;;;;;;;8.00;4.72;;;;;;;15.55;79.55;101650.81;5069479;28;20028;-69
2022/08/02 05:45:09;;;;;;;12.88;7.45;;;;;;;15.67;79.69;101651.81;5069567;28;20025;-69
2022/08/02 05:47:35;;;;;;;9.80;4.80;;;;;;;15.75;80.14;101653.50;5069648;28;20040;-69
2022/08/02 05:50:01;;;;;;;8.68;5.50;;;;;;;15.72;79.88;101641.28;5069681;28;20387;-69
2022/08/02 05:52:45;;;;;;;13.05;6.07;;;;;;;15.85;79.96;101651.19;5069611;28;20029;-70
2022/08/02 05:55:23;;;;;;;13.93;7.78;;;;;;;15.90;80.31;101654.06;5069619;28;20089;-70
2022/08/02 05:58:00;;;;;;;10.77;6.07;;;;;;;15.99;80.39;101657.34;5069423;28;20045;-70
2022/08/02 06:00:30;;;;;;;12.43;6.80;;;;;;;16.05;80.67;101652.97;5068939;28;20038;-72
2022/08/02 06:03:04;;;;;;;12.88;6.18;;;;;;;16.11;80.89;101668.25;5069465;28;20134;-71
2022/08/02 06:05:39;;;;;;;13.48;6.30;;;;;;;16.14;80.18;101657.91;5069292;28;20020;-72
2022/08/02 06:08:09;;;;;;;12.65;6.32;;;;;;;16.27;80.95;101665.09;5069291;28;20051;-71
2022/08/02 06:10:36;;;;;;;10.05;6.13;;;;;;;16.36;80.99;101661.09;5069221;28;20174;-71
2022/08/02 06:13:09;;;;;;;12.60;5.85;;;;;;;16.51;80.46;101673.47;5069395;28;20030;-72
2022/08/02 06:15:37;;;;;;;15.32;6.82;;;;;;;16.60;80.85;101670.28;5069048;28;20032;-71
2022/08/02 06:18:04;;;;;;;13.07;7.35;;;;;;;16.65;80.85;101662.38;5069176;28;20480;-72
2022/08/02 06:20:36;;;;;;;11.93;6.75;;;;;;;16.77;79.95;101669.78;5069040;28;20032;-71
2022/08/02 06:23:07;;;;;;;12.18;6.43;;;;;;;16.85;80.54;101658.78;5069249;28;20078;-71
2022/08/02 06:25:35;;;;;;;17.65;6.95;;;;;;;17.02;80.65;101667.94;5069290;28;20123;-71
2022/08/02 06:28:04;;;;;;;13.52;7.75;;;;;;;17.04;80.63;101665.88;5069085;28;20043;-71
2022/08/02 06:30:30;;;;;;;12.70;6.43;;;;;;;17.13;81.07;101665.59;5068721;28;20571;-71
2022/08/02 06:32:56;;;;;;;15.43;7.70;;;;;;;17.15;80.79;101655.41;5068960;28;20033;-71
2022/08/02 06:35:43;;;;;;;16.63;8.35;;;;;;;17.23;80.63;101653.25;5069151;28;20048;-72
2022/08/02 06:38:13;;;;;;;14.45;8.35;;;;;;;17.28;82.17;101649.91;5058061;28;20076;-72
2022/08/02 06:40:54;;;;;;;16.42;9.93;;;;;;;17.41;82.31;101655.16;5068975;28;20028;-73
2022/08/02 06:43:30;;;;;;;13.18;7.22;;;;;;;17.52;81.79;101659.81;5068498;28;20028;-71
2022/08/02 06:45:55;;;;;;;15.88;9.05;;;;;;;17.58;82.83;101654.59;5062893;28;20028;-72
2022/08/02 06:48:21;;;;;;;21.60;10.57;;;;;;;17.65;81.77;101656.16;5061485;28;20028;-71
2022/08/02 06:50:46;;;;;;;16.67;8.18;;;;;;;17.73;81.47;101649.66;5061830;28;21640;-72
2022/08/02 06:53:11;;;;;;;17.92;9.57;;;;;;;17.85;83.31;101650.59;5059922;28;20036;-72
2022/08/02 06:55:37;;;;;;;15.40;8.85;;;;;;;17.94;82.09;101654.63;5062932;28;20059;-71
2022/08/02 06:58:02;;;;;;;13.27;8.40;;;;;;;18.03;81.90;101647.06;5062850;28;20028;-71
2022/08/02 07:00:28;;;;;;;11.60;7.88;;;;;;;18.12;81.34;101655.66;5063112;28;20123;-71
2022/08/02 07:02:54;;;;;;;13.88;7.78;;;;;;;18.20;81.72;101651.81;5064389;28;20028;-71
2022/08/02 07:05:20;;;;;;;16.55;8.07;;;;;;;18.28;80.53;101646.91;5064702;28;20043;-72
2022/08/02 07:07:45;;;;;;;12.73;7.75;;;;;;;18.37;81.08;101653.66;5062251;28;20027;-72
2022/08/02 07:10:13;;;;;;;13.95;8.48;;;;;;;18.42;80.77;101657.53;5064874;28;20058;-67
2022/08/02 07:12:38;;;;;;;15.43;8.75;;;;;;;18.51;79.71;101656.19;5064168;28;20020;-67
2022/08/02 07:15:06;;;;;;;13.25;6.93;;;;;;;18.60;80.37;101658.34;5063960;28;20052;-67
2022/08/02 07:17:32;;;;;;;16.13;9.10;;;;;;;18.69;81.63;101656.13;5064580;28;20487;-67
2022/08/02 07:19:58;;;;;;;12.23;8.50;;;;;;;18.81;81.02;101650.75;5064277;28;20037;-66
2022/08/02 07:22:25;;;;;;;14.27;8.13;;;;;;;18.94;78.95;101658.69;5067972;28;20985;-68
2022/08/02 07:24:51;;;;;;;17.70;8.32;;;;;;;19.07;81.09;101657.63;5068403;28;20480;-68
2022/08/02 07:27:16;;;;;;;13.57;7.63;;;;;;;19.17;78.38;101648.94;5071147;28;20035;-68
2022/08/02 07:29:42;;;;;;;12.55;7.95;;;;;;;19.25;78.52;101649.41;5072213;28;20391;-68
2022/08/02 07:32:07;;;;;;;11.93;7.65;;;;;;;19.38;80.25;101640.22;5072176;28;20053;-68
2022/08/02 07:34:32;;;;;;;15.23;8.38;;;;;;;19.53;78.34;101642.47;5072142;28;20028;-68
2022/08/02 07:36:58;;;;;;;14.80;8.05;;;;;;;19.63;78.34;101639.97;5072228;28;20145;-68
2022/08/02 07:39:24;;;;;;;11.73;7.28;;;;;;;19.68;78.96;101631.19;5072154;28;20063;-68
2022/08/02 07:41:50;;;;;;;16.52;9.02;;;;;;;19.75;77.38;101642.69;5072168;28;20040;-68
2022/08/02 07:44:17;;;;;;;15.90;8.00;;;;;;;19.72;77.44;101637.75;5071682;28;20036;-68
2022/08/02 07:46:43;;;;;;;11.80;6.50;;;;;;;19.77;76.71;101635.16;5071533;28;20387;-67
2022/08/02 07:49:09;;;;;;;14.23;8.18;;;;;;;19.83;77.83;101634.22;5071855;28;20085;-67
2022/08/02 07:51:35;;;;;;;11.88;6.43;;;;;;;19.92;78.32;101635.47;5071817;28;20464;-67
2022/08/02 07:54:01;;;;;;;10.35;5.97;;;;;;;20.01;78.66;101638.63;5071746;28;20028;-68
2022/08/02 07:56:26;;;;;;;13.25;6.93;;;;;;;20.08;78.03;101633.88;5071700;28;20032;-68
2022/08/02 07:58:52;;;;;;;10.23;6.25;;;;;;;20.25;77.51;101646.66;5070274;28;20036;-67
2022/08/02 08:01:18;;;;;;;11.07;6.65;;;;;;;20.31;76.32;101630.28;5071562;28;20552;-68
2022/08/02 08:03:43;;;;;;;11.80;6.97;;;;;;;20.47;75.41;101641.38;5071340;28;20024;-68
2022/08/02 08:06:09;;;;;;;10.50;5.78;;;;;;;20.57;74.55;101631.59;5071660;28;20477;-68
2022/08/02 08:08:34;;;;;;;11.00;5.53;;;;;;;20.79;73.58;101637.09;5071406;28;20029;-68
2022/08/02 08:11:00;;;;;;;10.68;5.85;;;;;;;21.45;72.94;101634.59;5071326;28;20388;-68
2022/08/02 08:13:25;;;;;;;8.45;5.68;;;;;;;22.80;67.76;101637.75;5071496;28;20056;-67
2022/08/02 08:15:50;;;;;;;9.50;5.13;;;;;;;24.51;62.04;101628.28;5070001;28;20074;-67
2022/08/02 08:18:16;;;;;;;9.82;5.75;;;;;;;26.32;56.64;101622.91;5071152;28;20036;-68
2022/08/02 08:20:41;;;;;;;9.80;4.50;;;;;;;27.82;50.41;101622.03;5071402;28;20597;-68
2022/08/02 08:23:06;;;;;;;8.63;4.45;;;;;;;29.19;47.92;101622.94;5071190;28;20390;-68
2022/08/02 08:25:32;;;;;;;6.03;3.42;;;;;;;30.08;43.64;101625.22;5071280;28;20077;-67
2022/08/02 08:27:58;;;;;;;4.65;2.92;;;;;;;30.29;43.28;101627.53;5071424;28;20470;-68
2022/08/02 08:30:23;;;;;;;4.72;2.90;;;;;;;30.49;41.57;101623.47;5071003;28;20569;-68
2022/08/02 08:32:49;;;;;;;7.32;2.97;;;;;;;30.21;42.43;101625.47;5070858;28;20040;-68
2022/08/02 08:35:14;;;;;;;5.20;2.60;;;;;;;30.28;41.37;101623.16;5069881;28;20050;-68
2022/08/02 08:37:40;;;;;;;5.07;2.70;;;;;;;30.41;42.54;101619.53;5070766;28;20376;-71
2022/08/02 08:40:09;;;;;;;5.82;2.45;;;;;;;30.47;40.81;101617.47;5070937;28;20039;-71
2022/08/02 08:42:38;;;;;;;37.05;3.55;;;;;;;30.43;40.54;101622.78;5070755;28;20048;-72
2022/08/02 08:45:04;;;;;;;4.70;2.55;;;;;;;30.62;40.00;101619.84;5070790;28;20039;-72
2022/08/02 08:47:35;;;;;;;2.25;1.90;;;;;;;30.68;39.25;101612.25;5070006;28;20118;-72
2022/08/02 08:50:16;;;;;;;2.47;2.00;;;;;;;30.81;38.38;101619.66;5070799;28;20032;-72
2022/08/02 08:52:48;;;;;;;5.22;1.85;;;;;;;31.09;40.47;101622.25;5070354;28;20056;-71
2022/08/02 08:55:14;;;;;;;3.53;1.67;;;;;;;31.14;38.51;101622.09;5070458;28;20040;-72
2022/08/02 08:57:41;;;;;;;2.65;2.10;;;;;;;31.16;38.67;101623.41;5070203;28;20032;-72
2022/08/02 09:00:10;;;;;;;4.15;2.42;;;;;;;31.22;39.68;101624.06;5070429;28;20029;-72
2022/08/02 09:02:35;;;;;;;3.63;1.80;;;;;;;30.17;41.28;101621.75;5070442;28;20032;-72
2022/08/02 09:05:01;;;;;;;5.28;2.40;;;;;;;28.87;43.90;101619.09;5069996;28;20039;-72
2022/08/02 09:07:27;;;;;;;2.92;2.35;;;;;;;27.86;45.47;101617.59;5070384;28;20456;-72
2022/08/02 09:09:53;;;;;;;4.28;2.65;;;;;;;27.03;48.69;101614.13;5070095;28;20384;-72
2022/08/02 09:12:21;;;;;;;3.85;2.40;;;;;;;26.48;50.84;101620.88;5070208;28;20043;-71
2022/08/02 09:14:46;;;;;;;3.55;2.30;;;;;;;25.86;49.52;101625.91;5070274;28;20047;-72
2022/08/02 09:17:12;;;;;;;3.08;1.95;;;;;;;25.44;51.02;101618.94;5070201;28;20928;-71
2022/08/02 09:19:38;;;;;;;3.40;2.25;;;;;;;25.06;52.58;101618.44;5069793;28;20039;-71
2022/08/02 09:22:09;;;;;;;3.17;2.83;;;;;;;24.82;53.56;101621.75;5070140;28;20472;-71
2022/08/02 09:24:49;;;;;;;3.72;2.00;;;;;;;24.65;52.52;101621.19;5070145;28;20529;-72
2022/08/02 09:27:18;;;;;;;2.58;2.10;;;;;;;24.55;52.83;101613.00;5070232;28;20033;-71
2022/08/02 09:29:49;;;;;;;5.53;2.40;;;;;;;24.56;52.49;101614.66;5069889;28;20043;-71
2022/08/02 09:32:16;;;;;;;3.47;1.52;;;;;;;24.58;50.16;101612.50;5069898;28;20506;-71
2022/08/02 09:34:51;;;;;;;6.72;1.58;;;;;;;24.61;50.69;101628.31;5070146;28;20439;-72
2022/08/02 09:37:29;;;;;;;3.70;1.90;;;;;;;24.53;49.42;101612.47;5069899;28;20029;-72
2022/08/02 09:39:55;;;;;;;2.65;1.90;;;;;;;24.52;49.17;101625.28;5069883;28;20527;-72
2022/08/02 09:42:21;;;;;;;5.07;1.33;;;;;;;24.52;48.21;101610.81;5069802;28;20480;-72
2022/08/02 09:44:56;;;;;;;3.88;2.70;;;;;;;24.51;47.60;101620.13;5069656;28;20028;-71
2022/08/02 09:47:26;;;;;;;4.80;2.00;;;;;;;24.49;50.61;101607.53;5069550;28;20032;-72
2022/08/02 09:49:56;;;;;;;2.28;1.90;;;;;;;24.62;49.19;101608.91;5068747;28;20032;-72
2022/08/02 09:52:31;;;;;;;2.38;1.88;;;;;;;24.77;49.94;101618.22;5069469;28;20135;-72
2022/08/02 09:55:04;;;;;;;2.90;2.45;;;;;;;24.90;50.70;101613.00;5069348;28;20111;-71
2022/08/02 09:57:32;;;;;;;2.10;1.90;;;;;;;24.85;48.13;101614.94;5069656;28;20034;-71
2022/08/02 09:59:58;;;;;;;2.35;1.65;;;;;;;24.92;47.80;101619.00;5069479;28;20048;-71
2022/08/02 10:02:23;;;;;;;4.57;1.77;;;;;;;24.91;43.91;101625.53;5069400;28;20043;-71
2022/08/02 10:04:49;;;;;;;3.00;1.67;;;;;;;24.89;44.14;101616.03;5069295;28;20116;-72
2022/08/02 10:07:15;;;;;;;2.88;1.60;;;;;;;24.84;44.16;101619.56;5068913;28;20501;-72
2022/08/02 10:09:41;;;;;;;3.53;1.40;;;;;;;24.69;43.64;101614.94;5069364;28;20028;-71
2022/08/02 10:12:07;;;;;;;3.13;1.20;;;;;;;24.58;44.60;101618.75;5068770;28;20119;-71
2022/08/02 10:14:36;;;;;;;11.02;2.05;;;;;;;24.71;44.94;101615.47;5069370;28;20059;-71
2022/08/02 10:17:03;;;;;;;2.33;1.60;;;;;;;24.90;45.71;101618.47;5069276;28;20035;-71
2022/08/02 10:19:29;;;;;;;10.77;2.40;;;;;;;25.05;43.36;101611.38;5068081;28;20032;-72
2022/08/02 10:22:02;;;;;;;3.17;1.58;;;;;;;25.05;43.24;101611.38;5068951;28;20537;-71
2022/08/02 10:24:30;;;;;;;3.40;1.85;;;;;;;25.01;43.24;101610.28;5069204;28;20024;-71
2022/08/02 10:26:58;;;;;;;4.72;1.92;;;;;;;24.99;44.02;101601.53;5067738;28;20036;-72
2022/08/02 10:29:33;;;;;;;2.45;1.75;;;;;;;25.02;43.97;101610.00;5069082;28;20044;-71
2022/08/02 10:32:09;;;;;;;3.13;1.75;;;;;;;25.11;44.63;101608.34;5068931;28;20041;-71
2022/08/02 10:34:56;;;;;;;6.13;1.77;;;;;;;25.30;45.34;101594.13;5068628;28;20036;-71
2022/08/02 10:37:28;;;;;;;2.20;1.67;;;;;;;25.41;43.21;101597.63;5068872;28;20908;-71
2022/08/02 10:39:56;;;;;;;2.63;1.63;;;;;;;25.53;41.82;101598.16;5068921;28;20043;-71
2022/08/02 10:42:45;;;;;;;3.22;1.83;;;;;;;25.39;42.43;101606.13;5069011;28;20043;-71
2022/08/02 10:45:14;;;;;;;2.03;1.80;;;;;;;25.27;42.65;101595.50;5069153;28;20032;-71
2022/08/02 10:47:55;;;;;;;1.48;1.38;;;;;;;25.36;43.37;101596.56;5068830;28;20038;-71
2022/08/02 10:50:40;;;;;;;1.33;1.23;;;;;;;25.46;41.43;101594.88;5068768;28;20020;-71
2022/08/02 10:53:32;;;;;;;6.35;1.45;;;;;;;25.55;43.83;101601.44;5068586;28;20041;-71
2022/08/02 10:56:03;;;;;;;7.90;1.52;;;;;;;25.50;42.10;101585.88;5065954;28;20040;-71
2022/08/02 10:58:33;;;;;;;1.97;1.57;;;;;;;25.43;41.87;101600.91;5068714;28;20031;-71
2022/08/02 11:01:26;;;;;;;1.67;1.30;;;;;;;25.30;42.70;101592.22;5069610;28;20309;-71
2022/08/02 11:03:56;;;;;;;2.25;1.50;;;;;;;25.40;45.57;101594.09;5072848;28;20489;-72
2022/08/02 11:06:22;;;;;;;1.70;1.20;;;;;;;25.52;42.66;101594.59;5072709;28;20032;-72
2022/08/02 11:08:47;;;;;;;1.73;1.60;;;;;;;25.75;41.85;101593.16;5072293;28;20093;-71
2022/08/02 11:11:12;;;;;;;6.45;1.45;;;;;;;25.90;40.28;101599.66;5071630;28;20040;-72
2022/08/02 11:14:00;;;;;;;2.17;1.50;;;;;;;25.94;42.40;101585.16;5067663;28;20451;-73
2022/08/02 11:16:54;;;;;;;1.70;1.35;;;;;;;26.09;41.61;101588.88;5067992;28;20675;-72
2022/08/02 11:19:19;;;;;;;1.83;1.45;;;;;;;26.21;41.55;101592.88;5068371;28;20028;-69
2022/08/02 11:22:02;;;;;;;1.33;1.08;;;;;;;26.29;41.67;101585.19;5068420;28;20031;-68
2022/08/02 11:24:36;;;;;;;2.22;1.13;;;;;;;26.41;41.20;101586.47;5068132;28;20031;-68
2022/08/02 11:27:03;;;;;;;3.50;1.10;;;;;;;26.36;39.01;101591.97;5068180;28;20115;-68